Time;durP1;ratioP1;P1;durP2;ratioP2;P2;SDS_P1;SDS_P2;PMS_P1;PMS_P2;Temp;Humidity;BMP_temperature;BMP_pressure;BME280_temperature;BME280_humidity;BME280_pressure;Samples;Min_cycle;Max_cycle;Signal;HPM_P1;HPM_P2
2022/05/15 00:00:41;;;;;;;7.77;4.47;;;13.90;99.90;;;;;;5094337;28;20502;-71
2022/05/15 00:03:11;;;;;;;7.97;4.80;;;13.90;99.90;;;;;;5094564;28;20449;-71
2022/05/15 00:05:38;;;;;;;7.57;4.30;;;13.80;99.90;;;;;;5094176;28;20567;-71
2022/05/15 00:08:05;;;;;;;10.30;4.57;;;13.80;99.90;;;;;;5094004;28;20481;-71
2022/05/15 00:10:32;;;;;;;13.37;4.50;;;13.80;99.90;;;;;;5094240;28;20795;-71
2022/05/15 00:12:59;;;;;;;7.20;4.60;;;13.70;99.90;;;;;;5094601;28;20457;-71
2022/05/15 00:15:25;;;;;;;11.13;5.63;;;13.70;99.90;;;;;;5094247;28;20527;-71
2022/05/15 00:17:53;;;;;;;10.63;5.70;;;13.70;99.90;;;;;;5094321;28;20485;-72
2022/05/15 00:20:20;;;;;;;9.23;4.87;;;13.70;99.90;;;;;;5093836;28;20929;-71
2022/05/15 00:22:47;;;;;;;9.67;4.80;;;13.70;99.90;;;;;;5094075;28;20461;-72
2022/05/15 00:25:14;;;;;;;8.93;4.20;;;13.60;99.90;;;;;;5094285;28;20782;-71
2022/05/15 00:27:40;;;;;;;8.33;5.20;;;13.60;99.90;;;;;;5093961;28;20461;-71
2022/05/15 00:30:08;;;;;;;10.13;5.43;;;13.60;99.90;;;;;;5094098;28;20546;-72
2022/05/15 00:32:35;;;;;;;9.20;5.07;;;13.60;99.90;;;;;;5094264;28;20457;-71
2022/05/15 00:35:03;;;;;;;13.57;5.00;;;13.60;99.90;;;;;;5094211;28;20457;-71
2022/05/15 00:37:30;;;;;;;7.40;4.70;;;13.60;99.90;;;;;;5094227;28;20909;-72
2022/05/15 00:39:57;;;;;;;11.67;5.00;;;13.60;99.90;;;;;;5094175;28;20963;-72
2022/05/15 00:42:25;;;;;;;9.77;4.80;;;13.60;99.90;;;;;;5094818;28;20539;-72
2022/05/15 00:44:52;;;;;;;7.30;5.50;;;13.50;99.90;;;;;;5095148;28;20468;-72
2022/05/15 00:47:19;;;;;;;7.13;4.50;;;13.50;99.90;;;;;;5094022;28;20450;-71
2022/05/15 00:49:47;;;;;;;11.03;5.23;;;13.50;99.90;;;;;;5094018;28;20518;-72
2022/05/15 00:52:20;;;;;;;7.87;4.63;;;13.40;99.90;;;;;;5094009;28;20453;-71
2022/05/15 00:54:50;;;;;;;8.67;4.73;;;13.40;99.90;;;;;;5094511;28;20503;-71
2022/05/15 00:57:22;;;;;;;9.60;5.83;;;13.40;99.90;;;;;;5093748;28;20882;-71
2022/05/15 00:59:53;;;;;;;10.73;4.87;;;13.40;99.90;;;;;;5093732;28;20781;-71
2022/05/15 01:02:21;;;;;;;11.43;5.70;;;13.40;99.90;;;;;;5096479;28;20442;-72
2022/05/15 01:04:48;;;;;;;9.90;5.27;;;13.40;99.90;;;;;;5097648;28;20797;-71
2022/05/15 01:07:17;;;;;;;8.07;5.50;;;13.40;99.90;;;;;;5096718;28;20967;-72
2022/05/15 01:09:43;;;;;;;9.87;5.80;;;13.40;99.90;;;;;;5098171;28;20781;-71
2022/05/15 01:12:13;;;;;;;10.70;5.63;;;13.40;99.90;;;;;;5097542;28;20453;-72
2022/05/15 01:14:41;;;;;;;7.80;4.87;;;13.40;99.90;;;;;;5097357;28;20453;-72
2022/05/15 01:17:08;;;;;;;6.70;4.53;;;13.30;99.90;;;;;;5099158;28;20453;-72
2022/05/15 01:19:40;;;;;;;6.43;4.43;;;13.30;99.90;;;;;;5099045;28;20960;-72
2022/05/15 01:22:14;;;;;;;9.73;5.27;;;13.30;99.90;;;;;;5099505;28;20776;-71
2022/05/15 01:24:41;;;;;;;15.70;5.33;;;13.20;99.90;;;;;;5097964;28;20447;-72
2022/05/15 01:27:11;;;;;;;10.63;4.80;;;13.20;99.90;;;;;;5097467;28;20457;-72
2022/05/15 01:29:42;;;;;;;7.13;4.33;;;13.20;99.90;;;;;;5096962;28;20488;-71
2022/05/15 01:32:10;;;;;;;6.47;4.70;;;13.20;99.90;;;;;;5097115;28;20449;-71
2022/05/15 01:34:37;;;;;;;9.40;4.80;;;13.20;99.90;;;;;;5096973;28;20457;-71
2022/05/15 01:37:04;;;;;;;9.13;4.50;;;13.20;99.90;;;;;;5097072;28;20518;-72
2022/05/15 01:39:32;;;;;;;8.10;5.13;;;13.10;99.90;;;;;;5097449;28;20485;-72
2022/05/15 01:41:59;;;;;;;8.77;4.73;;;13.00;99.90;;;;;;5097586;28;20555;-71
2022/05/15 01:44:27;;;;;;;10.80;5.20;;;12.90;99.90;;;;;;5096883;28;20458;-71
2022/05/15 01:46:53;;;;;;;9.63;5.10;;;12.90;99.90;;;;;;5096808;28;20457;-71
2022/05/15 01:49:21;;;;;;;7.73;4.57;;;12.90;99.90;;;;;;5096789;28;20449;-71
2022/05/15 01:51:47;;;;;;;6.30;3.93;;;12.90;99.90;;;;;;5096866;28;20452;-69
2022/05/15 01:54:14;;;;;;;10.13;3.30;;;12.90;99.90;;;;;;5096547;28;20453;-69
2022/05/15 01:56:43;;;;;;;5.40;3.20;;;12.90;99.90;;;;;;5096733;28;20457;-69
2022/05/15 01:59:10;;;;;;;14.03;4.00;;;12.90;99.90;;;;;;5096659;28;20483;-70
2022/05/15 02:01:37;;;;;;;6.20;3.73;;;12.80;99.90;;;;;;5096868;28;20453;-70
2022/05/15 02:04:07;;;;;;;6.70;3.30;;;12.80;99.90;;;;;;5096544;28;20821;-70
2022/05/15 02:06:34;;;;;;;5.03;2.90;;;12.80;99.90;;;;;;5096313;28;20463;-68
2022/05/15 02:09:01;;;;;;;5.53;3.20;;;12.80;99.90;;;;;;5096541;28;20438;-67
2022/05/15 02:11:28;;;;;;;4.93;3.40;;;12.80;99.90;;;;;;5096338;28;20461;-67
2022/05/15 02:13:56;;;;;;;6.43;3.27;;;12.80;99.90;;;;;;5095124;28;20472;-67
2022/05/15 02:16:22;;;;;;;5.40;3.07;;;12.80;99.90;;;;;;5096376;28;20462;-67
2022/05/15 02:18:49;;;;;;;5.47;2.63;;;12.80;99.90;;;;;;5095924;28;20531;-69
2022/05/15 02:21:16;;;;;;;7.57;2.93;;;12.80;99.90;;;;;;5096109;28;20457;-68
2022/05/15 02:23:42;;;;;;;6.07;3.80;;;12.80;99.90;;;;;;5096064;28;20454;-68
2022/05/15 02:26:09;;;;;;;6.63;3.00;;;12.80;99.90;;;;;;5096027;28;20453;-68
2022/05/15 02:28:37;;;;;;;6.47;4.20;;;12.70;99.90;;;;;;5095956;28;20856;-68
2022/05/15 02:31:05;;;;;;;6.77;3.30;;;12.70;99.90;;;;;;5095883;28;20453;-68
2022/05/15 02:33:32;;;;;;;3.23;2.93;;;12.70;99.90;;;;;;5095906;28;20454;-68
2022/05/15 02:35:59;;;;;;;6.23;3.67;;;12.70;99.90;;;;;;5095712;28;20453;-68
2022/05/15 02:38:26;;;;;;;7.10;3.60;;;12.60;99.90;;;;;;5095214;28;20453;-68
2022/05/15 02:40:53;;;;;;;5.53;2.97;;;12.50;99.90;;;;;;5095397;28;20886;-68
2022/05/15 02:43:20;;;;;;;7.57;3.73;;;12.50;99.90;;;;;;5095660;28;20465;-68
2022/05/15 02:45:47;;;;;;;7.93;3.80;;;12.50;99.90;;;;;;5095836;28;20530;-69
2022/05/15 02:51:04;;;;;;;7.57;4.40;;;12.40;99.90;;;;;;5095275;28;20425;-68
2022/05/15 02:53:32;;;;;;;7.10;4.07;;;12.40;99.90;;;;;;5095467;28;20763;-68
2022/05/15 02:55:59;;;;;;;7.90;3.93;;;12.30;99.90;;;;;;5095341;28;20543;-68
2022/05/15 02:58:28;;;;;;;8.80;3.90;;;12.30;99.90;;;;;;5095074;28;20778;-68
2022/05/15 03:00:56;;;;;;;11.03;4.37;;;12.30;99.90;;;;;;5094981;28;20453;-67
2022/05/15 03:03:24;;;;;;;12.47;5.00;;;12.20;99.90;;;;;;5094924;28;20952;-67
2022/05/15 03:05:50;;;;;;;7.43;4.00;;;12.20;99.90;;;;;;5095112;28;20453;-67
2022/05/15 03:08:17;;;;;;;15.00;5.40;;;12.20;99.90;;;;;;5094686;28;20485;-67
2022/05/15 03:10:44;;;;;;;7.57;3.80;;;12.20;99.90;;;;;;5094715;28;20457;-69
2022/05/15 03:13:10;;;;;;;9.83;3.87;;;12.20;99.90;;;;;;5095284;28;20457;-68
2022/05/15 03:15:38;;;;;;;8.40;3.30;;;12.20;99.90;;;;;;5095256;28;20840;-67
2022/05/15 03:18:05;;;;;;;9.23;4.90;;;12.20;99.90;;;;;;5095111;28;20457;-67
2022/05/15 03:20:33;;;;;;;6.53;4.50;;;12.20;99.90;;;;;;5095245;28;20477;-67
2022/05/15 03:23:00;;;;;;;8.33;3.63;;;12.20;99.90;;;;;;5094846;28;20929;-67
2022/05/15 03:25:27;;;;;;;7.53;4.17;;;12.20;99.90;;;;;;5094600;28;20975;-68
2022/05/15 03:27:54;;;;;;;7.97;4.20;;;12.20;99.90;;;;;;5094602;28;20461;-69
2022/05/15 03:30:21;;;;;;;4.53;3.20;;;12.20;99.90;;;;;;5094849;28;20449;-68
2022/05/15 03:32:48;;;;;;;8.50;4.20;;;12.10;99.90;;;;;;5094742;28;20511;-68
2022/05/15 03:35:15;;;;;;;10.10;3.90;;;12.10;99.90;;;;;;5094713;28;20453;-68
2022/05/15 03:37:43;;;;;;;8.73;3.87;;;12.00;99.90;;;;;;5094561;28;20453;-68
2022/05/15 03:40:14;;;;;;;7.63;4.00;;;12.00;99.90;;;;;;5094412;28;20591;-68
2022/05/15 03:42:41;;;;;;;9.63;4.03;;;11.90;99.90;;;;;;5094712;28;20499;-68
2022/05/15 03:45:09;;;;;;;6.93;3.37;;;11.90;99.90;;;;;;5094847;28;20453;-68
2022/05/15 03:47:36;;;;;;;7.17;4.77;;;11.90;99.90;;;;;;5094336;28;20568;-68
2022/05/15 03:50:04;;;;;;;7.00;4.20;;;11.90;99.90;;;;;;5095072;28;20548;-68
2022/05/15 03:52:31;;;;;;;5.63;3.63;;;11.90;99.90;;;;;;5094610;28;20861;-68
2022/05/15 03:54:59;;;;;;;7.47;3.80;;;11.90;99.90;;;;;;5094596;28;20465;-68
2022/05/15 03:57:26;;;;;;;5.73;3.90;;;11.90;99.90;;;;;;5094477;28;20788;-68
2022/05/15 03:59:53;;;;;;;6.97;4.07;;;11.90;99.90;;;;;;5094410;28;20496;-68
2022/05/15 04:02:20;;;;;;;8.73;4.37;;;12.00;99.90;;;;;;5094425;28;20893;-68
2022/05/15 04:04:46;;;;;;;6.90;3.63;;;12.00;99.90;;;;;;5094326;28;20562;-68
2022/05/15 04:07:14;;;;;;;5.37;3.43;;;12.00;99.90;;;;;;5094333;28;20857;-67
2022/05/15 04:09:41;;;;;;;9.40;3.83;;;12.00;99.90;;;;;;5096302;28;20522;-67
2022/05/15 04:12:10;;;;;;;6.80;4.00;;;12.10;99.90;;;;;;5096281;28;20973;-68
2022/05/15 04:14:39;;;;;;;5.90;3.50;;;12.10;99.90;;;;;;5094240;28;20453;-68
2022/05/15 04:17:06;;;;;;;8.10;4.33;;;12.10;99.90;;;;;;5093901;28;20940;-67
2022/05/15 04:19:34;;;;;;;8.00;4.00;;;12.10;99.90;;;;;;5094147;28;20510;-68
2022/05/15 04:22:04;;;;;;;7.30;3.57;;;12.20;99.90;;;;;;5093894;28;20909;-67
2022/05/15 04:24:32;;;;;;;11.10;4.27;;;12.20;99.90;;;;;;5094221;28;20457;-68
2022/05/15 04:26:59;;;;;;;6.07;4.10;;;12.20;99.90;;;;;;5094305;28;20464;-68
2022/05/15 04:29:28;;;;;;;5.67;2.83;;;12.30;99.90;;;;;;5093897;28;20450;-68
2022/05/15 04:31:56;;;;;;;7.23;3.97;;;12.30;99.90;;;;;;5094365;28;20921;-68
2022/05/15 04:34:24;;;;;;;6.13;3.47;;;12.30;99.90;;;;;;5094068;28;20468;-68
2022/05/15 04:36:50;;;;;;;7.10;3.70;;;12.20;99.90;;;;;;5096258;28;20522;-68
2022/05/15 04:39:17;;;;;;;4.00;3.10;;;12.30;99.90;;;;;;5097957;28;20538;-68
2022/05/15 04:41:44;;;;;;;7.33;3.13;;;12.40;99.90;;;;;;5097841;28;20518;-68
2022/05/15 04:44:12;;;;;;;7.83;3.80;;;12.50;99.90;;;;;;5097891;28;20592;-68
2022/05/15 04:46:40;;;;;;;4.27;2.83;;;12.50;99.90;;;;;;5097679;28;20467;-68
2022/05/15 04:49:07;;;;;;;6.17;3.23;;;12.50;99.90;;;;;;5097982;28;20464;-68
2022/05/15 04:51:34;;;;;;;6.03;2.80;;;12.50;99.90;;;;;;5097783;28;20453;-68
2022/05/15 04:54:01;;;;;;;5.30;2.57;;;12.60;99.90;;;;;;5097531;28;20453;-68
2022/05/15 04:56:28;;;;;;;7.10;3.53;;;12.70;99.90;;;;;;5097812;28;20837;-68
2022/05/15 04:58:54;;;;;;;4.90;2.70;;;12.70;99.90;;;;;;5097640;28;20471;-68
2022/05/15 05:01:24;;;;;;;7.40;2.83;;;12.80;99.90;;;;;;5097443;28;20457;-68
2022/05/15 05:03:53;;;;;;;4.80;3.57;;;12.80;99.90;;;;;;5097512;28;20794;-68
2022/05/15 05:06:20;;;;;;;6.57;2.70;;;12.80;99.90;;;;;;5097594;28;20798;-69
2022/05/15 05:08:46;;;;;;;7.57;2.73;;;12.80;99.90;;;;;;5097074;28;20517;-68
2022/05/15 05:11:13;;;;;;;5.87;3.10;;;12.80;99.90;;;;;;5097480;28;20518;-68
2022/05/15 05:13:40;;;;;;;9.20;2.87;;;12.80;99.90;;;;;;5097515;28;20453;-69
2022/05/15 05:16:06;;;;;;;7.17;3.27;;;12.80;99.90;;;;;;5097166;28;20457;-69
2022/05/15 05:18:33;;;;;;;9.53;3.37;;;12.80;99.90;;;;;;5097382;28;20766;-68
2022/05/15 05:21:01;;;;;;;4.50;2.83;;;12.80;99.90;;;;;;5097084;28;20510;-68
2022/05/15 05:23:27;;;;;;;7.77;3.10;;;12.90;99.90;;;;;;5097254;28;20461;-69
2022/05/15 05:25:54;;;;;;;4.70;2.47;;;12.90;99.90;;;;;;5097139;28;20535;-66
2022/05/15 05:28:21;;;;;;;8.90;2.50;;;12.90;99.90;;;;;;5097140;28;20461;-69
2022/05/15 05:30:48;;;;;;;7.90;3.07;;;13.00;99.90;;;;;;5096931;28;20464;-68
2022/05/15 05:33:15;;;;;;;4.70;2.70;;;13.00;99.90;;;;;;5097089;28;20818;-69
2022/05/15 05:35:42;;;;;;;4.77;2.20;;;13.10;99.90;;;;;;5096805;28;20461;-68
2022/05/15 05:38:11;;;;;;;3.87;2.33;;;13.20;99.90;;;;;;5096895;28;20457;-69
2022/05/15 05:40:38;;;;;;;5.43;2.40;;;13.10;99.90;;;;;;5096702;28;20481;-69
2022/05/15 05:43:04;;;;;;;3.83;2.50;;;13.20;99.90;;;;;;5098080;28;20959;-69
2022/05/15 05:45:32;;;;;;;11.70;7.47;;;13.20;99.90;;;;;;5097816;28;20567;-69
2022/05/15 05:47:58;;;;;;;6.73;3.50;;;13.30;99.90;;;;;;5097895;28;20483;-69
2022/05/15 05:50:27;;;;;;;12.50;2.87;;;13.30;99.90;;;;;;5096498;28;20514;-69
2022/05/15 05:52:54;;;;;;;4.37;2.30;;;13.40;99.90;;;;;;5096558;28;20457;-69
2022/05/15 05:55:23;;;;;;;6.77;2.40;;;13.40;99.90;;;;;;5097122;28;20543;-69
2022/05/15 05:57:51;;;;;;;5.97;1.63;;;13.40;99.90;;;;;;5096642;28;20460;-68
2022/05/15 06:00:22;;;;;;;3.80;1.70;;;13.50;99.90;;;;;;5096541;28;20484;-68
2022/05/15 06:02:49;;;;;;;5.43;2.37;;;13.50;99.90;;;;;;5096530;28;20802;-69
2022/05/15 06:05:14;;;;;;;5.17;2.00;;;13.50;99.90;;;;;;5096517;28;20449;-68
2022/05/15 06:07:41;;;;;;;7.07;2.37;;;13.50;99.90;;;;;;5096227;28;20495;-68
2022/05/15 06:10:11;;;;;;;6.83;2.40;;;13.60;99.90;;;;;;5095976;28;20290;-68
2022/05/15 06:12:40;;;;;;;5.70;2.70;;;13.60;99.90;;;;;;5096718;28;20457;-68
2022/05/15 06:15:09;;;;;;;3.53;2.10;;;13.60;99.90;;;;;;5096320;28;20544;-68
2022/05/15 06:17:35;;;;;;;6.73;2.53;;;13.60;99.90;;;;;;5096322;28;20449;-67
2022/05/15 06:20:06;;;;;;;6.60;2.30;;;13.60;99.90;;;;;;5095691;28;20473;-69
2022/05/15 06:22:33;;;;;;;3.07;2.10;;;13.70;99.90;;;;;;5096285;28;20449;-69
2022/05/15 06:25:00;;;;;;;4.67;2.17;;;13.70;99.90;;;;;;5096052;28;20453;-66
2022/05/15 06:27:26;;;;;;;4.37;2.20;;;13.80;99.90;;;;;;5095972;28;20457;-69
2022/05/15 06:29:57;;;;;;;3.87;1.70;;;13.80;99.90;;;;;;5095953;28;20453;-68
2022/05/15 06:32:25;;;;;;;4.27;1.80;;;13.80;99.90;;;;;;5095640;28;20437;-68
2022/05/15 06:34:51;;;;;;;4.30;2.37;;;13.90;99.90;;;;;;5096011;28;20457;-69
2022/05/15 06:37:18;;;;;;;2.57;1.93;;;13.90;99.90;;;;;;5095482;28;20457;-68
2022/05/15 06:39:45;;;;;;;5.57;2.00;;;13.90;99.90;;;;;;5095793;28;20542;-68
2022/05/15 06:42:11;;;;;;;3.13;1.70;;;14.00;99.90;;;;;;5095935;28;20457;-68
2022/05/15 06:44:38;;;;;;;4.40;2.30;;;14.00;99.90;;;;;;5095622;28;20468;-68
2022/05/15 06:47:07;;;;;;;5.00;2.40;;;14.10;99.90;;;;;;5095563;28;20486;-68
2022/05/15 06:49:34;;;;;;;8.47;2.10;;;14.10;99.90;;;;;;5095659;28;20450;-69
2022/05/15 06:52:01;;;;;;;3.97;1.97;;;14.20;99.90;;;;;;5095376;28;20963;-67
2022/05/15 06:54:28;;;;;;;4.00;1.70;;;14.20;99.90;;;;;;5095217;28;20453;-68
2022/05/15 06:59:39;;;;;;;3.70;1.73;;;14.30;99.90;;;;;;5094664;28;20490;-67
2022/05/15 07:02:08;;;;;;;4.90;2.03;;;14.30;99.90;;;;;;5095176;28;20619;-67
2022/05/15 07:04:35;;;;;;;2.37;2.00;;;14.30;99.90;;;;;;5095210;28;20902;-67
2022/05/15 07:07:02;;;;;;;3.60;1.70;;;14.30;99.90;;;;;;5094948;28;20554;-67
2022/05/15 07:09:29;;;;;;;4.10;1.73;;;14.30;99.90;;;;;;5095062;28;20787;-68
2022/05/15 07:11:56;;;;;;;3.07;1.63;;;14.30;99.90;;;;;;5095166;28;20783;-68
2022/05/15 07:14:23;;;;;;;5.10;2.07;;;14.40;99.90;;;;;;5094704;28;20894;-68
2022/05/15 07:16:50;;;;;;;5.23;2.07;;;14.40;99.90;;;;;;5094997;28;20534;-67
2022/05/15 07:19:18;;;;;;;2.97;1.67;;;14.50;99.90;;;;;;5095203;28;20457;-68
2022/05/15 07:21:45;;;;;;;5.03;1.90;;;14.60;99.90;;;;;;5094929;28;20484;-68
2022/05/15 07:24:11;;;;;;;4.20;2.20;;;14.60;99.90;;;;;;5094998;28;20518;-67
2022/05/15 07:26:41;;;;;;;2.67;1.87;;;14.60;99.90;;;;;;5094956;28;20452;-68
2022/05/15 07:29:08;;;;;;;3.20;2.13;;;14.70;99.90;;;;;;5095071;28;20448;-68
2022/05/15 07:31:35;;;;;;;4.20;1.63;;;14.70;99.90;;;;;;5095390;28;20445;-68
2022/05/15 07:34:01;;;;;;;4.80;1.50;;;14.80;99.90;;;;;;5094758;28;20882;-68
2022/05/15 07:36:29;;;;;;;4.70;1.30;;;14.80;99.90;;;;;;5094734;28;20487;-68
2022/05/15 07:38:56;;;;;;;5.03;1.37;;;14.90;99.90;;;;;;5094493;28;20829;-67
2022/05/15 07:41:23;;;;;;;4.70;1.80;;;14.90;99.90;;;;;;5094957;28;20481;-68
2022/05/15 07:43:50;;;;;;;3.40;1.40;;;15.00;99.90;;;;;;5094282;28;20559;-68
2022/05/15 07:46:16;;;;;;;7.07;2.33;;;15.10;99.90;;;;;;5094554;28;20460;-67
2022/05/15 07:48:43;;;;;;;4.40;1.70;;;15.20;99.90;;;;;;5094646;28;20461;-68
2022/05/15 07:51:10;;;;;;;4.63;1.83;;;15.20;99.90;;;;;;5094818;28;20975;-68
2022/05/15 07:53:39;;;;;;;2.63;1.53;;;15.10;99.90;;;;;;5094735;28;20518;-67
2022/05/15 07:56:09;;;;;;;3.87;1.70;;;15.20;99.90;;;;;;5095217;28;20770;-69
2022/05/15 07:58:36;;;;;;;3.17;1.60;;;15.20;99.90;;;;;;5094738;28;20534;-68
2022/05/15 08:01:04;;;;;;;6.30;1.70;;;15.30;99.90;;;;;;5094131;28;20538;-68
2022/05/15 08:03:33;;;;;;;4.37;1.33;;;15.40;99.90;;;;;;5094488;28;20458;-67
2022/05/15 08:08:46;;;;;;;3.40;1.70;;;15.50;99.90;;;;;;5094508;28;20476;-67
2022/05/15 08:11:12;;;;;;;4.23;1.47;;;15.50;99.90;;;;;;5095643;28;20453;-68
2022/05/15 08:13:39;;;;;;;3.40;1.30;;;15.60;99.90;;;;;;5098314;28;20457;-68
2022/05/15 08:16:06;;;;;;;4.53;2.10;;;15.70;99.90;;;;;;5098292;28;20544;-68
2022/05/15 08:24:04;;;;;;;2.80;1.40;;;15.90;99.90;;;;;;5098256;28;20453;-72
2022/05/15 08:26:31;;;;;;;4.33;1.27;;;16.00;99.90;;;;;;5098133;28;20468;-73
2022/05/15 08:28:58;;;;;;;1.90;1.40;;;16.00;99.90;;;;;;5097853;28;20787;-72
2022/05/15 08:31:26;;;;;;;1.97;1.07;;;16.10;99.90;;;;;;5098294;28;20461;-73
2022/05/15 08:33:54;;;;;;;3.30;1.20;;;16.20;99.90;;;;;;5098310;28;20453;-72
2022/05/15 08:36:21;;;;;;;6.93;1.70;;;16.30;99.90;;;;;;5097863;28;20486;-73
2022/05/15 08:38:48;;;;;;;2.80;1.43;;;16.40;99.90;;;;;;5097614;28;20472;-73
2022/05/15 08:41:26;;;;;;;1.67;1.10;;;16.50;99.90;;;;;;5098131;28;20542;-71
2022/05/15 08:43:58;;;;;;;6.50;1.37;;;16.60;99.90;;;;;;5097928;28;20946;-72
2022/05/15 08:46:38;;;;;;;2.73;1.70;;;16.60;99.90;;;;;;5097882;28;20442;-71
2022/05/15 08:49:11;;;;;;;4.90;1.70;;;16.70;99.90;;;;;;5097796;28;20524;-72
2022/05/15 08:51:41;;;;;;;1.80;1.13;;;16.60;99.90;;;;;;5098246;28;20464;-72
2022/05/15 08:54:10;;;;;;;3.03;1.40;;;16.60;99.90;;;;;;5097997;28;20513;-72
2022/05/15 08:56:46;;;;;;;3.97;1.63;;;16.60;99.90;;;;;;5097634;28;20457;-72
2022/05/15 08:59:25;;;;;;;3.20;1.40;;;16.60;99.90;;;;;;5097162;28;20885;-72
2022/05/15 09:01:54;;;;;;;5.40;1.60;;;16.60;99.90;;;;;;5097105;28;20461;-72
2022/05/15 09:04:21;;;;;;;5.10;1.33;;;16.70;99.90;;;;;;5097077;28;20468;-72
2022/05/15 09:07:03;;;;;;;5.33;1.23;;;16.80;99.90;;;;;;5097092;28;20896;-72
2022/05/15 09:09:39;;;;;;;2.03;1.10;;;16.90;99.90;;;;;;5097127;28;20545;-72
2022/05/15 09:12:15;;;;;;;2.10;1.57;;;17.00;99.90;;;;;;5096884;28;20448;-73
2022/05/15 09:14:59;;;;;;;2.90;1.47;;;17.10;99.90;;;;;;5097036;28;20785;-68
2022/05/15 09:17:33;;;;;;;4.37;1.40;;;17.20;99.90;;;;;;5097065;28;20467;-68
2022/05/15 09:20:03;;;;;;;3.00;1.20;;;17.20;99.90;;;;;;5097139;28;20498;-68
2022/05/15 09:22:34;;;;;;;2.37;1.20;;;17.20;99.90;;;;;;5096478;28;20548;-69
2022/05/15 09:25:06;;;;;;;1.93;1.17;;;17.30;99.90;;;;;;5097073;28;20468;-69
2022/05/15 09:27:35;;;;;;;1.60;1.33;;;17.40;99.90;;;;;;5096752;28;20441;-69
2022/05/15 09:30:07;;;;;;;4.00;1.47;;;17.40;99.90;;;;;;5095987;28;20457;-68
2022/05/15 09:32:38;;;;;;;2.43;1.30;;;17.40;99.90;;;;;;5096979;28;20455;-68
2022/05/15 09:35:11;;;;;;;3.93;1.23;;;17.50;99.90;;;;;;5096128;28;20889;-69
2022/05/15 09:40:24;;;;;;;5.53;1.77;;;17.60;99.90;;;;;;5065640;28;20449;-69
2022/05/15 09:45:54;;;;;;;1.50;0.97;;;17.60;99.90;;;;;;5071234;28;20779;-68
2022/05/15 09:48:24;;;;;;;5.13;1.40;;;17.60;99.90;;;;;;5096382;28;20519;-67
2022/05/15 09:50:59;;;;;;;2.93;1.20;;;17.60;99.90;;;;;;5097276;28;20775;-68
2022/05/15 09:53:36;;;;;;;3.40;1.00;;;17.70;99.90;;;;;;5096472;28;20437;-68
2022/05/15 09:56:05;;;;;;;9.77;6.40;;;17.80;99.90;;;;;;5096763;28;20754;-69
2022/05/15 09:58:43;;;;;;;29.73;19.00;;;17.90;99.90;;;;;;5097078;28;20994;-69
2022/05/15 10:01:23;;;;;;;5.57;1.57;;;18.10;99.90;;;;;;5097196;28;20472;-68
2022/05/15 10:03:52;;;;;;;4.40;1.30;;;18.30;99.90;;;;;;5097889;28;20457;-70
2022/05/15 10:06:21;;;;;;;1.60;1.13;;;18.40;99.90;;;;;;5096256;28;20514;-68
2022/05/15 10:09:09;;;;;;;2.50;1.30;;;18.50;99.90;;;;;;5095603;28;20595;-68
2022/05/15 10:11:38;;;;;;;1.93;1.30;;;18.60;99.90;;;;;;5096396;28;20914;-68
2022/05/15 10:14:09;;;;;;;2.60;0.87;;;18.70;99.90;;;;;;5096112;28;20492;-68
2022/05/15 10:16:44;;;;;;;2.03;1.10;;;18.80;99.90;;;;;;5096331;28;20453;-69
2022/05/15 10:19:19;;;;;;;1.30;0.90;;;18.90;99.90;;;;;;5096569;28;20829;-68
2022/05/15 10:21:49;;;;;;;1.63;0.90;;;19.00;99.90;;;;;;5095739;28;20971;-68
2022/05/15 10:24:21;;;;;;;5.53;1.03;;;19.00;99.90;;;;;;5096138;28;20449;-68
2022/05/15 10:26:57;;;;;;;1.50;0.90;;;19.00;99.90;;;;;;5095778;28;20460;-68
2022/05/15 10:29:36;;;;;;;1.60;1.10;;;19.00;99.90;;;;;;5095616;28;20445;-68
2022/05/15 10:32:07;;;;;;;3.97;0.83;;;19.00;99.90;;;;;;5095811;28;20524;-68
2022/05/15 10:34:35;;;;;;;1.23;0.80;;;19.10;99.90;;;;;;5094462;28;20521;-68
2022/05/15 10:37:16;;;;;;;1.97;0.90;;;19.10;99.90;;;;;;5095526;28;20492;-68
2022/05/15 10:39:53;;;;;;;1.30;0.80;;;19.10;97.90;;;;;;5095610;28;20543;-68
2022/05/15 10:42:26;;;;;;;3.10;0.90;;;19.10;96.50;;;;;;5095111;28;20800;-68
2022/05/15 10:45:08;;;;;;;2.27;0.90;;;19.20;93.00;;;;;;5095264;28;20441;-68
2022/05/15 10:47:44;;;;;;;1.30;0.70;;;19.20;93.10;;;;;;5095572;28;20465;-69
2022/05/15 10:50:22;;;;;;;1.60;0.90;;;19.20;90.90;;;;;;5095365;28;20750;-69
2022/05/15 10:57:21;;;;;;;1.93;0.90;;;19.20;91.90;;;;;;5095804;28;20433;-69
2022/05/15 10:58:55;;;;;;;2.10;0.90;;;19.40;92.00;;;;;;5095424;28;20441;-68
2022/05/15 11:01:31;;;;;;;1.73;1.20;;;19.50;92.40;;;;;;5095088;28;20504;-67
2022/05/15 11:04:07;;;;;;;2.60;1.00;;;19.50;92.10;;;;;;5095171;28;20909;-68
2022/05/15 11:06:55;;;;;;;1.43;0.80;;;19.70;92.50;;;;;;5094546;28;20445;-68
2022/05/15 11:09:33;;;;;;;2.40;0.80;;;19.80;92.40;;;;;;5094512;28;20498;-68
2022/05/15 11:12:18;;;;;;;2.33;0.90;;;20.00;91.30;;;;;;5094844;28;20434;-68
2022/05/15 11:14:56;;;;;;;2.33;0.90;;;20.30;90.00;;;;;;5093944;28;20956;-68
2022/05/15 11:17:31;;;;;;;1.30;0.90;;;20.70;88.30;;;;;;5094744;28;20437;-68
2022/05/15 11:20:04;;;;;;;1.50;0.90;;;21.20;82.20;;;;;;5094941;28;20433;-68
2022/05/15 11:22:37;;;;;;;1.70;0.80;;;21.80;81.00;;;;;;5094637;28;20913;-68
2022/05/15 11:25:12;;;;;;;2.97;0.80;;;22.70;78.50;;;;;;5094950;28;20820;-69
2022/05/15 11:27:47;;;;;;;1.83;0.80;;;23.90;73.70;;;;;;5094125;28;20447;-69
2022/05/15 11:30:18;;;;;;;1.20;0.80;;;25.00;63.90;;;;;;5094699;28;20449;-69
2022/05/15 11:33:06;;;;;;;4.00;2.30;;;25.80;58.40;;;;;;5094446;28;20433;-69
2022/05/15 11:35:35;;;;;;;3.43;1.00;;;26.80;55.70;;;;;;5094515;28;20488;-69
2022/05/15 11:38:06;;;;;;;1.20;0.80;;;27.70;51.80;;;;;;5094531;28;20526;-69
2022/05/15 11:40:37;;;;;;;1.80;0.90;;;28.20;47.70;;;;;;5095133;28;20444;-69
2022/05/15 11:43:52;;;;;;;3.20;0.90;;;28.70;46.00;;;;;;5094446;28;20581;-69
2022/05/15 11:46:19;;;;;;;1.87;1.20;;;29.10;43.20;;;;;;5094114;28;20464;-69
2022/05/15 11:48:58;;;;;;;2.93;1.00;;;29.40;42.00;;;;;;5094430;28;20465;-67
2022/05/15 11:51:34;;;;;;;17.63;15.80;;;29.70;40.70;;;;;;5094491;28;20449;-69
2022/05/15 11:54:04;;;;;;;2.47;1.33;;;29.70;39.80;;;;;;5094506;28;20828;-70
2022/05/15 11:56:39;;;;;;;1.80;1.50;;;29.80;39.60;;;;;;5094507;28;20544;-70
2022/05/15 11:59:23;;;;;;;2.37;1.20;;;30.10;38.50;;;;;;5094504;28;20451;-69
2022/05/15 12:01:52;;;;;;;1.80;1.10;;;30.40;37.40;;;;;;5094295;28;20461;-69
2022/05/15 12:04:59;;;;;;;4.50;1.30;;;30.50;36.20;;;;;;5094276;28;20519;-69
2022/05/15 12:07:32;;;;;;;8.00;7.20;;;30.70;35.50;;;;;;5094043;28;20480;-69
2022/05/15 12:09:59;;;;;;;2.30;2.10;;;30.60;35.40;;;;;;5094435;28;20437;-67
2022/05/15 12:13:01;;;;;;;1.63;1.00;;;30.70;34.50;;;;;;5094179;28;20518;-69
2022/05/15 12:15:40;;;;;;;3.03;1.20;;;30.70;34.40;;;;;;5083840;28;20460;-69
2022/05/15 12:18:27;;;;;;;2.47;1.80;;;30.90;34.00;;;;;;5094380;28;20441;-69
2022/05/15 12:20:56;;;;;;;1.80;1.20;;;31.20;33.00;;;;;;5094171;28;20521;-69
2022/05/15 12:23:25;;;;;;;1.73;1.37;;;31.40;32.30;;;;;;5094034;28;20839;-70
2022/05/15 12:25:56;;;;;;;2.07;1.20;;;31.20;31.50;;;;;;5094452;28;20453;-69
2022/05/15 12:31:20;;;;;;;2.57;1.10;;;31.30;32.50;;;;;;5094408;28;20483;-70
2022/05/15 12:33:47;;;;;;;3.57;0.90;;;31.30;32.30;;;;;;5094257;28;20442;-69
2022/05/15 12:36:20;;;;;;;1.30;0.90;;;31.40;32.10;;;;;;5094257;28;20457;-69
2022/05/15 12:38:50;;;;;;;1.30;1.00;;;31.50;31.80;;;;;;5094412;28;20446;-69
2022/05/15 12:41:25;;;;;;;3.80;3.07;;;31.60;31.70;;;;;;5093738;28;20457;-69
2022/05/15 12:43:52;;;;;;;5.63;5.13;;;32.10;30.80;;;;;;5094066;28;20445;-69
2022/05/15 12:46:26;;;;;;;1.93;1.63;;;32.50;31.20;;;;;;5093976;28;20510;-69
2022/05/15 12:48:53;;;;;;;5.60;5.00;;;32.80;30.00;;;;;;5093861;28;20728;-69
2022/05/15 12:51:28;;;;;;;3.30;2.90;;;33.00;30.60;;;;;;5093684;28;20450;-70
2022/05/15 12:53:55;;;;;;;3.30;2.37;;;33.40;29.90;;;;;;5093997;28;20448;-70
2022/05/15 12:56:26;;;;;;;3.63;1.63;;;33.70;29.30;;;;;;5094086;28;20526;-70
2022/05/15 12:58:56;;;;;;;1.97;1.30;;;33.80;29.20;;;;;;5097750;28;20488;-70
2022/05/15 13:01:26;;;;;;;4.37;1.70;;;33.60;29.10;;;;;;5097525;28;20552;-70
2022/05/15 13:03:56;;;;;;;2.60;1.20;;;33.40;28.90;;;;;;5097381;28;20889;-69
2022/05/15 13:06:31;;;;;;;2.90;1.30;;;33.40;28.70;;;;;;5097326;28;20437;-69
2022/05/15 13:09:00;;;;;;;3.13;2.67;;;33.50;28.70;;;;;;5097563;28;20425;-69
2022/05/15 13:11:46;;;;;;;1.43;1.13;;;33.80;28.60;;;;;;5097363;28;20969;-69
2022/05/15 13:14:21;;;;;;;1.73;1.27;;;33.80;27.80;;;;;;5096844;28;20882;-69
2022/05/15 13:16:52;;;;;;;1.33;0.97;;;33.70;27.60;;;;;;5096826;28;20748;-69
2022/05/15 13:19:24;;;;;;;1.40;1.10;;;33.50;27.90;;;;;;5096362;28;20444;-69
2022/05/15 13:21:54;;;;;;;1.87;1.10;;;33.70;28.00;;;;;;5097326;28;20496;-69
2022/05/15 13:24:23;;;;;;;2.47;1.20;;;33.80;27.50;;;;;;5096967;28;20570;-69